Whitewater, KS (67154)

3:02 PM CDT on August 30, 2015 (GMT -0500)
CookFarm | | Change Station
CLOSE
Current Station
Personal Weather Station
Location: Whitewater, KS
Elevation: 1421 ft
Nearby Weather Stations

Elev 1421 ft 37.96 °N, 97.17 °W | Updated 6 seconds ago

Mostly Cloudy
Mostly Cloudy
84.6 °F
Feels Like 87 °F
N
9.0
Wind Variable Wind from ESE
Gusts 9.0 mph

Today
High -- | Low -- °F
--% Chance of Precip.
Yesterday
High -- | Low -- °F
Precip. -- in
6:56 AM 8:01 PM
Full, 98% visible
Pressure 30.04 in
Visibility 10.0 miles
Clouds Mostly Cloudy 3200 ft
Heat Index 87 °F
Dew Point 67 °F
Humidity 56%
Rainfall 0.00 in
Snow Depth Not available.
UV 5 out of 12
Pollen 10.60 out of 12
Air Quality Not available.
Flu Activity Not available.
METAR KEWK 301955Z AUTO 12006KT 10SM BKN032 28/17 A3004 RMK AO1
Pressure 30.04 in
Visibility 10.0 miles
Clouds Mostly Cloudy 3200 ft
Heat Index 87 °F
Dew Point 67 °F
Humidity 56%
Rainfall 0.00 in
Snow Depth Not available.
UV 5 out of 12
Pollen 10.60 out of 12
Air Quality Not available.
Flu Activity Not available.
METAR KEWK 301955Z AUTO 12006KT 10SM BKN032 28/17 A3004 RMK AO1

10-Day Weather Forecast

×

Almanac

Astronomy

Aug. 30, 2015 Rise Set
Actual Time
Civil Twilight
Nautical Twilight
Astronomical Twilight
Moon
Length of Visible Light
Length of Day
Tomorrow will be .
, % of the Moon is Illuminated

Today's Extremes

State Highs State Lows

Community

WunderPhotos

Upload Photos

1,851,048 photos uploaded!

WunderBlogs® & News

Nearby

Air Quality

  Air Quality AQ Index Pollutant
Not available.

Snow Depth

Station Depth Elevation

Earthquake Activity

City Distance Mag. Time & Date
Minimum magnitude displayed is 2.5.

Coastal Water Temperatures

Place Temperature

Stations

Nearby Weather Stations

Station Location Temp. Windchill Dew Point Humidity Wind Precip. Elev Updated Type